createdAt,value
2018-10-16T00:01:04.103Z,8.17
2018-10-16T00:03:32.772Z,7.70
2018-10-16T00:06:01.545Z,7.70
2018-10-16T00:08:30.329Z,8.43
2018-10-16T00:10:59.036Z,8.23
2018-10-16T00:13:27.702Z,8.77
2018-10-16T00:15:56.309Z,8.00
2018-10-16T00:18:35.972Z,8.00
2018-10-16T00:21:04.827Z,7.50
2018-10-16T00:23:33.605Z,7.77
2018-10-16T00:26:02.302Z,7.60
2018-10-16T00:28:30.961Z,7.20
2018-10-16T00:30:59.608Z,7.83
2018-10-16T00:33:28.288Z,7.30
2018-10-16T00:35:56.949Z,7.27
2018-10-16T00:38:25.632Z,7.47
2018-10-16T00:40:54.341Z,7.57
2018-10-16T00:43:22.993Z,7.33
2018-10-16T00:45:51.666Z,7.47
2018-10-16T00:48:20.365Z,7.00
2018-10-16T00:50:49.102Z,7.90
2018-10-16T00:53:17.828Z,6.97
2018-10-16T00:55:46.555Z,7.30
2018-10-16T00:58:15.212Z,7.10
2018-10-16T01:00:43.895Z,6.60
2018-10-16T01:03:12.610Z,6.97
2018-10-16T01:05:41.276Z,7.20
2018-10-16T01:08:09.929Z,6.90
2018-10-16T01:10:38.617Z,7.00
2018-10-16T01:13:07.336Z,7.47
2018-10-16T01:15:36.040Z,7.20
2018-10-16T01:18:04.716Z,7.20
2018-10-16T01:20:33.437Z,7.13
2018-10-16T01:23:02.061Z,7.00
2018-10-16T01:25:30.845Z,7.57
2018-10-16T01:27:59.498Z,7.43
2018-10-16T01:30:28.204Z,7.60
2018-10-16T01:32:56.923Z,7.13
2018-10-16T01:35:25.566Z,7.03
2018-10-16T01:37:54.263Z,7.03
2018-10-16T01:40:22.933Z,6.90
2018-10-16T01:42:51.661Z,6.87
2018-10-16T01:45:22.255Z,7.10
2018-10-16T01:47:53.392Z,6.90
2018-10-16T01:50:22.085Z,7.07
2018-10-16T01:52:50.643Z,7.13
2018-10-16T01:55:19.289Z,7.43
2018-10-16T01:57:47.920Z,6.93
2018-10-16T02:00:16.630Z,7.80
2018-10-16T02:02:45.339Z,7.57
2018-10-16T02:05:13.959Z,7.80
2018-10-16T02:07:42.676Z,7.40
2018-10-16T02:10:11.344Z,7.30
2018-10-16T02:12:39.916Z,7.53
2018-10-16T02:15:09.249Z,6.90
2018-10-16T02:17:38.757Z,7.40
2018-10-16T02:20:07.822Z,7.07
2018-10-16T02:22:36.927Z,7.20
2018-10-16T02:25:05.617Z,7.47
2018-10-16T02:27:34.261Z,7.27
2018-10-16T02:30:02.860Z,7.17
2018-10-16T02:32:31.478Z,7.30
2018-10-16T02:35:00.118Z,7.10
2018-10-16T02:37:28.832Z,7.43
2018-10-16T02:39:57.545Z,7.87
2018-10-16T02:42:26.140Z,8.17
2018-10-16T02:44:54.850Z,7.47
2018-10-16T02:47:23.594Z,7.40
2018-10-16T02:49:52.257Z,7.57
2018-10-16T02:52:20.966Z,7.77
2018-10-16T02:54:49.607Z,7.93
2018-10-16T02:57:18.402Z,7.60
2018-10-16T02:59:47.117Z,8.07
2018-10-16T03:02:15.840Z,7.90
2018-10-16T03:04:44.543Z,8.20
2018-10-16T03:07:13.303Z,7.77
2018-10-16T03:09:42.045Z,7.40
2018-10-16T03:12:10.759Z,7.60
2018-10-16T03:14:39.497Z,7.63
2018-10-16T03:17:09.429Z,7.87
2018-10-16T03:19:38.282Z,7.07
2018-10-16T03:22:07.202Z,8.63
2018-10-16T03:24:35.884Z,9.83
2018-10-16T03:27:04.645Z,10.13
2018-10-16T03:29:33.377Z,9.40
2018-10-16T03:32:02.068Z,8.93
2018-10-16T03:34:30.805Z,9.13
2018-10-16T03:36:59.483Z,8.27
2018-10-16T03:39:28.219Z,8.97
2018-10-16T03:41:56.946Z,8.50
2018-10-16T03:44:25.726Z,8.50
2018-10-16T03:46:54.399Z,8.33
2018-10-16T03:49:23.111Z,7.57
2018-10-16T03:51:51.770Z,7.87
2018-10-16T03:54:20.480Z,8.20
2018-10-16T03:56:49.175Z,7.70
2018-10-16T03:59:17.801Z,7.73
2018-10-16T04:01:46.443Z,7.00
2018-10-16T04:04:15.044Z,7.50
2018-10-16T04:06:43.791Z,7.53
2018-10-16T04:09:12.409Z,7.70
2018-10-16T04:11:41.063Z,7.90
2018-10-16T04:14:09.718Z,7.87
2018-10-16T04:16:38.336Z,8.23
2018-10-16T04:19:07.038Z,7.90
2018-10-16T04:21:41.399Z,7.47
2018-10-16T04:24:10.087Z,7.07
2018-10-16T04:26:38.821Z,7.20
2018-10-16T04:29:07.897Z,7.37
2018-10-16T04:31:36.493Z,8.37
2018-10-16T04:34:05.382Z,7.93
2018-10-16T04:36:34.087Z,8.43
2018-10-16T04:39:02.874Z,7.57
2018-10-16T04:41:31.508Z,7.60
2018-10-16T04:44:00.235Z,7.50
2018-10-16T04:46:29.002Z,7.60
2018-10-16T04:48:57.736Z,7.63
2018-10-16T04:51:26.432Z,8.00
2018-10-16T04:53:55.196Z,8.10
2018-10-16T04:56:23.929Z,7.93
2018-10-16T04:58:52.635Z,7.80
2018-10-16T05:01:21.367Z,7.60
2018-10-16T05:03:50.105Z,7.60
2018-10-16T05:06:18.849Z,8.00
2018-10-16T05:08:47.535Z,10.03
2018-10-16T05:11:16.277Z,10.73
2018-10-16T05:13:44.908Z,8.60
2018-10-16T05:16:23.329Z,8.33
2018-10-16T05:18:52.248Z,8.07
2018-10-16T05:21:20.982Z,7.93
2018-10-16T05:23:50.017Z,8.17
2018-10-16T05:26:18.752Z,8.40
2018-10-16T05:28:47.495Z,8.37
2018-10-16T05:31:16.342Z,7.67
2018-10-16T05:33:45.042Z,8.10
2018-10-16T05:36:13.879Z,8.17
2018-10-16T05:38:43.232Z,8.00
2018-10-16T05:41:11.942Z,8.03
2018-10-16T05:43:40.658Z,8.00
2018-10-16T05:46:09.378Z,8.23
2018-10-16T05:48:38.315Z,7.57
2018-10-16T05:51:06.995Z,9.37
2018-10-16T05:53:35.944Z,8.50
2018-10-16T05:56:05.906Z,7.73
2018-10-16T05:58:35.686Z,9.10
2018-10-16T06:01:04.602Z,8.80
2018-10-16T06:03:33.539Z,8.87
2018-10-16T06:06:02.215Z,9.17
2018-10-16T06:08:30.902Z,8.87
2018-10-16T06:10:59.739Z,8.50
2018-10-16T06:13:28.363Z,8.07
2018-10-16T06:15:58.338Z,8.47
2018-10-16T06:18:27.068Z,8.07
2018-10-16T06:20:55.779Z,8.40
2018-10-16T06:23:24.421Z,9.63
2018-10-16T06:25:53.124Z,9.43
2018-10-16T06:28:24.514Z,9.37
2018-10-16T06:30:53.274Z,8.30
2018-10-16T06:33:23.849Z,9.30
2018-10-16T06:35:52.516Z,10.97
2018-10-16T06:38:21.362Z,11.00
2018-10-16T06:40:50.510Z,9.43
2018-10-16T06:43:19.214Z,10.13
2018-10-16T06:45:47.888Z,9.50
2018-10-16T06:48:16.732Z,8.63
2018-10-16T06:50:45.485Z,9.60
2018-10-16T06:53:14.240Z,8.43
2018-10-16T06:55:43.571Z,8.90
2018-10-16T06:58:12.291Z,9.10
2018-10-16T07:00:41.194Z,8.77
2018-10-16T07:03:11.218Z,8.93
2018-10-16T07:05:39.942Z,8.20
2018-10-16T07:08:08.610Z,8.13
2018-10-16T07:10:40.268Z,7.93
2018-10-16T07:13:11.316Z,8.13
2018-10-16T07:15:39.989Z,7.53
2018-10-16T07:18:08.681Z,8.00
2018-10-16T07:20:37.364Z,7.83
2018-10-16T07:23:23.707Z,8.20
2018-10-16T07:25:54.527Z,7.97
2018-10-16T07:28:25.580Z,8.17
2018-10-16T07:30:54.317Z,8.43
2018-10-16T07:33:22.989Z,7.60
2018-10-16T07:35:51.747Z,7.87
2018-10-16T07:38:20.460Z,7.73
2018-10-16T07:40:49.349Z,8.10
2018-10-16T07:43:18.066Z,8.10
2018-10-16T07:45:46.699Z,8.53
2018-10-16T07:48:15.451Z,7.83
2018-10-16T07:50:44.117Z,8.53
2018-10-16T07:53:17.861Z,8.63
2018-10-16T07:55:46.590Z,8.87
2018-10-16T07:58:15.299Z,8.90
2018-10-16T08:00:43.994Z,8.80
2018-10-16T08:03:13.058Z,8.47
2018-10-16T08:05:41.824Z,8.50
2018-10-16T08:08:10.535Z,8.50
2018-10-16T08:10:39.262Z,8.50
2018-10-16T08:13:08.040Z,8.97
2018-10-16T08:15:36.706Z,8.37
2018-10-16T08:18:06.116Z,8.77
2018-10-16T08:20:34.851Z,8.17
2018-10-16T08:23:03.552Z,7.77
2018-10-16T08:25:32.254Z,9.37
2018-10-16T08:28:00.942Z,7.90
2018-10-16T08:30:30.225Z,7.93
2018-10-16T08:32:59.339Z,8.17
2018-10-16T08:35:28.437Z,7.93
2018-10-16T08:40:04.542Z,8.00
2018-10-16T08:44:42.181Z,7.90
2018-10-16T08:47:21.998Z,8.20
2018-10-16T08:50:04.136Z,7.60
2018-10-16T08:52:32.747Z,7.43
2018-10-16T08:55:01.583Z,8.20
2018-10-16T08:57:30.473Z,8.03
2018-10-16T08:59:59.128Z,7.53
2018-10-16T09:02:28.015Z,7.50
2018-10-16T09:04:57.614Z,7.03
2018-10-16T09:07:26.234Z,6.50
2018-10-16T09:09:55.079Z,7.20
2018-10-16T09:12:24.119Z,6.13
2018-10-16T09:14:52.746Z,6.10
2018-10-16T09:17:21.379Z,5.77
2018-10-16T09:19:50.392Z,6.03
2018-10-16T09:22:19.102Z,5.83
2018-10-16T09:24:47.820Z,6.20
2018-10-16T09:27:16.755Z,5.90
2018-10-16T09:29:46.045Z,5.83
2018-10-16T09:32:15.472Z,5.87
2018-10-16T09:34:44.241Z,5.70
2018-10-16T09:37:12.857Z,5.93
2018-10-16T09:39:41.695Z,5.57
2018-10-16T09:42:10.252Z,5.30
2018-10-16T09:44:39.250Z,5.73
2018-10-16T09:47:08.069Z,6.30
2018-10-16T09:49:37.286Z,6.47
2018-10-16T09:52:06.395Z,6.70
2018-10-16T09:54:35.126Z,5.60
2018-10-16T09:57:04.093Z,5.83
2018-10-16T09:59:32.985Z,5.67
2018-10-16T10:02:02.019Z,5.37
2018-10-16T10:04:30.706Z,5.97
2018-10-16T10:06:59.602Z,5.80
2018-10-16T10:09:28.551Z,5.13
2018-10-16T10:11:57.260Z,5.83
2018-10-16T10:14:25.897Z,5.30
2018-10-16T10:16:54.523Z,5.90
2018-10-16T10:19:23.989Z,5.00
2018-10-16T10:21:53.545Z,5.97
2018-10-16T10:24:22.310Z,6.00
2018-10-16T10:26:50.942Z,5.93
2018-10-16T10:29:19.734Z,5.67
2018-10-16T10:31:48.407Z,5.47
2018-10-16T10:34:17.446Z,5.20
2018-10-16T10:36:46.389Z,5.53
2018-10-16T10:39:15.073Z,5.60
2018-10-16T10:41:43.765Z,5.40
2018-10-16T10:44:12.422Z,5.63
2018-10-16T10:46:41.079Z,5.53
2018-10-16T10:49:09.822Z,5.60
2018-10-16T10:51:38.899Z,5.77
2018-10-16T10:54:07.294Z,5.17
2018-10-16T10:56:36.059Z,5.80
2018-10-16T10:59:04.879Z,6.13
2018-10-16T11:01:33.616Z,5.70
2018-10-16T11:04:02.271Z,5.53
2018-10-16T11:06:31.039Z,5.70
2018-10-16T11:08:59.728Z,5.17
2018-10-16T11:11:29.599Z,6.07
2018-10-16T11:13:59.489Z,5.60
2018-10-16T11:16:29.247Z,5.73
2018-10-16T11:18:57.997Z,5.30
2018-10-16T11:21:26.718Z,5.00
2018-10-16T11:23:55.340Z,5.27
2018-10-16T11:26:24.015Z,5.60
2018-10-16T11:28:52.689Z,7.97
2018-10-16T11:31:21.432Z,5.27
2018-10-16T11:33:50.046Z,7.27
2018-10-16T11:36:19.214Z,5.20
2018-10-16T11:38:47.905Z,4.60
2018-10-16T11:41:16.539Z,5.13
2018-10-16T11:43:45.275Z,4.70
2018-10-16T11:46:14.277Z,9.37
2018-10-16T11:48:43.391Z,5.07
2018-10-16T11:51:12.403Z,5.03
2018-10-16T11:53:41.628Z,4.70
2018-10-16T11:56:10.669Z,5.00
2018-10-16T11:58:39.292Z,4.80
2018-10-16T12:01:08.458Z,5.10
2018-10-16T12:03:37.155Z,4.27
2018-10-16T12:06:06.127Z,4.70
2018-10-16T12:08:34.739Z,4.70
2018-10-16T12:11:03.396Z,4.73
2018-10-16T12:13:32.226Z,4.50
2018-10-16T12:16:00.847Z,5.30
2018-10-16T12:18:33.059Z,4.30
2018-10-16T12:21:05.772Z,4.73
2018-10-16T12:23:34.429Z,4.80
2018-10-16T12:26:03.110Z,4.70
2018-10-16T12:28:31.783Z,4.87
2018-10-16T12:31:00.482Z,4.23
2018-10-16T12:33:29.091Z,4.93
2018-10-16T12:35:57.687Z,5.07
2018-10-16T12:38:26.424Z,4.83
2018-10-16T12:40:54.973Z,4.47
2018-10-16T12:43:23.886Z,4.87
2018-10-16T12:45:52.711Z,4.13
2018-10-16T12:48:21.386Z,4.40
2018-10-16T12:50:50.590Z,3.97
2018-10-16T12:53:19.289Z,4.60
2018-10-16T12:55:47.986Z,4.00
2018-10-16T12:58:16.685Z,4.33
2018-10-16T13:00:45.591Z,3.90
2018-10-16T13:03:14.584Z,4.10
2018-10-16T13:05:43.279Z,4.93
2018-10-16T13:08:17.045Z,5.03
2018-10-16T13:10:45.874Z,4.60
2018-10-16T13:13:14.613Z,4.53
2018-10-16T14:11:18.639Z,4.27
2018-10-16T14:13:47.889Z,4.50
2018-10-16T14:16:17.094Z,4.97
2018-10-16T14:18:46.239Z,4.77
2018-10-16T14:21:15.904Z,4.67
2018-10-16T14:26:37.407Z,4.90
2018-10-16T14:29:06.923Z,4.83
2018-10-16T14:31:36.386Z,4.90
2018-10-16T14:34:05.824Z,4.40
2018-10-16T14:36:34.950Z,4.90
2018-10-16T14:39:04.601Z,4.90
2018-10-16T14:41:33.854Z,4.20
2018-10-16T14:44:03.085Z,4.83
2018-10-16T14:46:32.247Z,4.63
2018-10-16T14:49:02.848Z,4.43
2018-10-16T14:51:31.905Z,4.50
2018-10-16T14:54:01.758Z,4.60
2018-10-16T14:56:31.040Z,4.27
2018-10-16T14:59:00.071Z,4.33
2018-10-16T15:01:29.072Z,4.60
2018-10-16T15:03:57.775Z,4.33
2018-10-16T15:06:26.483Z,4.40
2018-10-16T15:08:55.165Z,4.30
2018-10-16T15:11:23.906Z,4.40
2018-10-16T15:13:52.870Z,4.27
2018-10-16T15:16:22.457Z,4.30
2018-10-16T15:18:51.110Z,4.60
2018-10-16T15:21:19.771Z,4.10
2018-10-16T15:23:48.630Z,4.47
2018-10-16T15:26:17.283Z,4.33
2018-10-16T15:28:48.218Z,4.60
2018-10-16T15:31:17.083Z,4.30
2018-10-16T15:33:45.748Z,3.93
2018-10-16T15:36:14.469Z,4.30
2018-10-16T15:38:43.118Z,4.00
2018-10-16T15:41:11.935Z,4.17
2018-10-16T15:43:40.578Z,4.90
2018-10-16T15:46:09.756Z,4.33
2018-10-16T15:48:38.443Z,4.03
2018-10-16T15:51:07.408Z,4.03
2018-10-16T15:53:36.537Z,4.17
2018-10-16T15:56:05.702Z,4.50
2018-10-16T15:58:34.627Z,4.40
2018-10-16T16:01:03.623Z,5.03
2018-10-16T16:03:32.347Z,4.83
2018-10-16T16:06:01.402Z,5.10
2018-10-16T16:08:30.402Z,4.60
2018-10-16T16:10:59.074Z,4.40
2018-10-16T16:13:28.106Z,4.03
2018-10-16T16:15:56.896Z,4.20
2018-10-16T16:18:25.686Z,4.30
2018-10-16T16:20:54.391Z,4.80
2018-10-16T16:23:23.253Z,4.10
2018-10-16T16:25:52.112Z,4.50
2018-10-16T16:28:20.766Z,4.70
2018-10-16T16:30:49.478Z,4.23
2018-10-16T16:33:18.358Z,4.90
2018-10-16T16:35:47.290Z,4.77
2018-10-16T16:38:16.681Z,4.90
2018-10-16T16:40:45.602Z,6.03
2018-10-16T16:43:14.313Z,6.00
2018-10-16T16:45:43.130Z,5.33
2018-10-16T16:48:12.675Z,5.53
2018-10-16T16:50:41.363Z,5.57
2018-10-16T16:53:10.057Z,4.80
2018-10-16T16:55:38.628Z,5.20
2018-10-16T16:58:07.421Z,5.43
2018-10-16T17:00:36.027Z,5.40
2018-10-16T17:03:05.116Z,5.13
2018-10-16T17:05:33.774Z,5.60
2018-10-16T17:08:02.703Z,5.97
2018-10-16T17:10:31.386Z,6.00
2018-10-16T17:13:00.022Z,16.17
2018-10-16T17:15:28.663Z,6.63
2018-10-16T17:17:57.376Z,16.07
2018-10-16T17:20:26.146Z,5.97
2018-10-16T17:22:54.879Z,10.20
2018-10-16T17:25:24.406Z,5.43
2018-10-16T17:27:53.440Z,5.20
2018-10-16T17:30:22.211Z,5.40
2018-10-16T17:32:51.059Z,5.70
2018-10-16T17:35:19.956Z,6.07
2018-10-16T17:37:48.787Z,10.00
2018-10-16T17:40:18.398Z,25.50
2018-10-16T17:42:47.035Z,7.33
2018-10-16T17:45:17.106Z,6.37
2018-10-16T17:47:46.047Z,5.63
2018-10-16T17:50:16.514Z,5.43
2018-10-16T17:52:45.271Z,5.70
2018-10-16T17:55:14.985Z,5.70
2018-10-16T17:57:43.814Z,6.53
2018-10-16T18:00:14.770Z,5.97
2018-10-16T18:02:43.980Z,5.50
2018-10-16T18:05:13.242Z,5.83
2018-10-16T18:07:44.061Z,6.13
2018-10-16T18:10:13.454Z,6.10
2018-10-16T18:12:42.170Z,5.77
2018-10-16T18:15:12.736Z,6.37
2018-10-16T18:17:42.119Z,5.90
2018-10-16T18:20:13.298Z,5.70
2018-10-16T18:22:42.454Z,5.80
2018-10-16T18:25:11.710Z,6.60
2018-10-16T18:27:41.108Z,5.80
2018-10-16T18:30:10.542Z,6.53
2018-10-16T18:32:39.535Z,6.57
2018-10-16T18:35:08.245Z,6.33
2018-10-16T18:37:36.995Z,6.27
2018-10-16T18:40:08.460Z,6.13
2018-10-16T18:42:37.556Z,6.27
2018-10-16T18:45:09.368Z,6.40
2018-10-16T18:47:38.130Z,6.80
2018-10-16T18:50:08.686Z,6.70
2018-10-16T18:52:37.423Z,6.90
2018-10-16T18:55:08.218Z,6.40
2018-10-16T18:57:37.107Z,6.80
2018-10-16T19:00:07.884Z,6.83
2018-10-16T19:02:36.694Z,6.50
2018-10-16T19:05:06.205Z,6.43
2018-10-16T19:07:34.846Z,7.37
2018-10-16T19:10:03.767Z,7.57
2018-10-16T19:12:32.482Z,7.40
2018-10-16T19:15:03.394Z,7.07
2018-10-16T19:17:32.078Z,6.73
2018-10-16T19:20:00.842Z,6.80
2018-10-16T19:22:29.534Z,7.20
2018-10-16T19:24:58.297Z,7.30
2018-10-16T19:27:27.034Z,7.23
2018-10-16T19:29:55.865Z,7.43
2018-10-16T19:32:24.790Z,7.50
2018-10-16T19:34:53.547Z,7.67
2018-10-16T19:37:22.361Z,7.43
2018-10-16T19:39:51.048Z,7.30
2018-10-16T19:42:19.750Z,8.23
2018-10-16T19:44:48.524Z,8.30
2018-10-16T19:47:17.690Z,8.80
2018-10-16T19:49:46.375Z,7.70
2018-10-16T19:52:15.257Z,8.27
2018-10-16T19:54:50.719Z,8.43
2018-10-16T19:57:21.071Z,8.67
2018-10-16T19:59:50.838Z,9.57
2018-10-16T20:02:19.642Z,8.07
2018-10-16T20:04:48.317Z,8.40
2018-10-16T20:07:17.269Z,8.33
2018-10-16T20:09:46.706Z,8.53
2018-10-16T20:12:15.740Z,7.73
2018-10-16T20:14:44.602Z,7.77
2018-10-16T20:17:13.421Z,8.17
2018-10-16T20:19:42.303Z,8.23
2018-10-16T20:22:11.598Z,7.90
2018-10-16T20:24:40.489Z,7.67
2018-10-16T20:27:09.175Z,8.40
2018-10-16T20:29:37.815Z,8.17
2018-10-16T20:32:06.502Z,8.03
2018-10-16T20:34:35.161Z,7.70
2018-10-16T20:37:03.930Z,7.90
2018-10-16T20:39:32.617Z,8.60
2018-10-16T20:42:01.636Z,8.10
2018-10-16T20:44:30.224Z,8.07
2018-10-16T20:46:59.063Z,8.07
2018-10-16T20:49:27.999Z,8.43
2018-10-16T20:51:59.170Z,8.30
2018-10-16T20:54:27.805Z,8.37
2018-10-16T20:56:56.428Z,8.37
2018-10-16T20:59:25.166Z,8.43
2018-10-16T21:01:53.793Z,8.77
2018-10-16T21:04:22.522Z,8.07
2018-10-16T21:06:51.630Z,8.90
2018-10-16T21:09:20.170Z,8.20
2018-10-16T21:11:48.850Z,8.20
2018-10-16T21:14:17.854Z,7.77
2018-10-16T21:16:46.801Z,7.80
2018-10-16T21:19:15.689Z,7.97
2018-10-16T21:21:44.581Z,8.30
2018-10-16T21:24:13.506Z,8.33
2018-10-16T21:26:42.173Z,8.27
2018-10-16T21:29:11.299Z,8.83
2018-10-16T21:31:39.960Z,8.10
2018-10-16T21:34:08.909Z,7.43
2018-10-16T21:36:37.811Z,8.63
2018-10-16T21:39:07.029Z,7.97
2018-10-16T21:41:35.747Z,8.23
2018-10-16T21:44:04.405Z,8.80
2018-10-16T21:46:33.365Z,8.27
2018-10-16T21:49:02.131Z,8.97
2018-10-16T21:51:30.751Z,8.80
2018-10-16T21:53:59.934Z,8.20
2018-10-16T21:56:28.642Z,8.03
2018-10-16T21:58:57.300Z,9.33
2018-10-16T22:01:31.330Z,8.30
2018-10-16T22:04:00.566Z,7.90
2018-10-16T22:06:29.212Z,8.47
2018-10-16T22:08:58.219Z,8.30
2018-10-16T22:11:26.964Z,8.27
2018-10-16T22:13:55.725Z,9.00
2018-10-16T22:16:25.187Z,8.30
2018-10-16T22:18:53.983Z,8.40
2018-10-16T22:21:23.200Z,8.70
2018-10-16T22:23:51.969Z,8.20
2018-10-16T22:26:20.858Z,8.13
2018-10-16T22:28:49.440Z,7.67
2018-10-16T22:31:18.707Z,8.43
2018-10-16T22:33:47.381Z,8.10
2018-10-16T22:36:16.141Z,8.77
2018-10-16T22:38:44.734Z,8.60
2018-10-16T22:41:13.983Z,8.50
2018-10-16T22:43:42.664Z,7.73
2018-10-16T22:46:11.362Z,8.47
2018-10-16T22:48:40.542Z,8.03
2018-10-16T22:51:09.650Z,8.87
2018-10-16T22:53:38.323Z,8.03
2018-10-16T22:56:07.740Z,8.50
2018-10-16T22:58:36.645Z,7.53
2018-10-16T23:01:05.677Z,8.40
2018-10-16T23:03:34.746Z,9.47
2018-10-16T23:06:03.459Z,9.70
2018-10-16T23:08:32.210Z,11.20
2018-10-16T23:11:01.070Z,9.40
2018-10-16T23:13:29.919Z,9.63
2018-10-16T23:15:58.654Z,9.50
2018-10-16T23:18:27.975Z,9.47
2018-10-16T23:20:56.693Z,10.20
2018-10-16T23:23:25.599Z,8.90
2018-10-16T23:25:54.261Z,9.87
2018-10-16T23:28:22.950Z,9.83
2018-10-16T23:30:51.757Z,10.20
2018-10-16T23:33:20.466Z,9.23
2018-10-16T23:35:49.266Z,8.83
2018-10-16T23:38:18.259Z,9.43
2018-10-16T23:40:47.026Z,9.10
2018-10-16T23:43:15.938Z,9.33
2018-10-16T23:45:44.979Z,9.77
2018-10-16T23:48:13.678Z,9.53
2018-10-16T23:50:42.327Z,10.20
2018-10-16T23:53:11.345Z,9.87
2018-10-16T23:55:40.955Z,10.53
2018-10-16T23:58:09.654Z,10.57
